AirNav   Air Wisconsin Airman Trainee
 
 754 users online  

S19 Mc Cormick County Airport
Mc Cormick, South Carolina, USA

GOING TO MC CORMICK?


FAA INFORMATION EFFECTIVE 28 MARCH 2019

Location

FAA Identifier: S19
Lat/Long: 33-54-29.1490N / 082-16-00.9480W
33-54.485817N / 082-16.015800W
33.9080969 / -82.2669300
(estimated)
Elevation: 459.4 ft. / 140.0 m (surveyed)
Variation: 04W (1985)
From city: 1 mile SE of MC CORMICK, SC
Time zone: UTC -4 (UTC -5 during Standard Time)
Zip code: 29835

Airport Operations

Airport use: Open to the public
Activation date: 09/1979
Control tower: no
ARTCC: ATLANTA CENTER
FSS: ANDERSON FLIGHT SERVICE STATION
NOTAMs facility: AND (NOTAM-D service available)
Attendance: UNATNDD
Wind indicator: no
Segmented circle: yes
Beacon: white-green (lighted land airport)
Operates sunset to sunrise.

Airport Communications

CTAF: 122.9

Nearby radio navigation aids

VOR radial/distance  VOR name  Freq  Var
IRQr341/13.1COLLIERS VORTAC113.9004W
GRDr196/21.4GREENWOOD VORTAC115.5001W

 
NDB name  Hdg/Dist  Freq  Var  ID
CORONACA210/22.623907WGIW --. .. .--
WASHINGTON/WILKES COUNTY077/28.443503WIIY .. .. -.--
EMORY337/29.938504WEMR . -- .-.
AIKEN304/33.234706WAIK .- .. -.-
ENOREE239/39.627807WEOE . --- .

Airport Services

Parking: tiedowns
Airframe service: NONE
Powerplant service: NONE
Bottled oxygen: NONE
Bulk oxygen: NONE

Runway Information

Runway 18/36

Dimensions: 3598 x 75 ft. / 1097 x 23 m
Surface: asphalt, in fair condition
Weight bearing capacity: 
Single wheel: 12.5
Runway edge markings: NUMBERS FADED.
RUNWAY 18  RUNWAY 36
Latitude: 33-54.781567N33-54.189033N
Longitude: 082-16.032250W082-15.997867W
Elevation: 451.3 ft.459.4 ft.
Gradient: 0.3%0.3%
Traffic pattern: leftleft
Runway heading: 181 magnetic, 177 true001 magnetic, 357 true
Markings: basic, in poor conditionbasic, in poor condition
Runway end identifier lights: nono
Touchdown point: yes, no lightsyes, no lights
Obstructions: 52 ft. tree, 266 ft. from runway, 64 ft. left of centerline, 1:1 slope to clear
49 FT TREE; 110 FT FROM RWY END; 81 FT L OF CNTRLN.
56 ft. tree, 588 ft. from runway, 68 ft. left of centerline, 6:1 slope to clear

Airport Ownership and Management from official FAA records

Ownership: Publicly-owned
Owner: MC CORMICK COUNTY
RT 2 BOX 84AA
MC CORMICK, SC 29835
Phone 864-852-2231
Manager: COLUMBUS STEPHENS
610 S. MINE STREET
MC CORMICK, SC 29835
Phone 864-852-2231
COUNTY ADMINISTRATOR.

Airport Operational Statistics

Aircraft operations: avg 21/month *
62% transient general aviation
21% local general aviation
17% military
* for 12-month period ending 18 October 2017

Additional Remarks

NO NIGHT OPERATIONS
FOR CD CTC AUGUSTA APCH AT 706-771-1777.

Instrument Procedures

There are no published instrument procedures at S19.

Some nearby airports with instrument procedures:

KGRD - Greenwood County Airport (21 nm N)
6J4 - Saluda County Airport (24 nm E)
KHQU - Thomson-McDuffie County Airport (26 nm SW)
KIIY - Washington-Wilkes County Airport (28 nm W)
KDNL - Daniel Field Airport (29 nm SE)
 
Loc | Ops | Rwys | IFR | FBO | Links
Com | Nav | Svcs | Stats | Notes
Area around S19 (Mc Cormick County Airport)
 
Road maps at: MapQuest Bing Google
 
Aerial photo
WARNING: Photo may not be current or correct
Aerial photo of S19 (Mc Cormick County Airport)
Photo by Richard Helton

Do you have a better or more recent aerial photo of Mc Cormick County Airport that you would like to share? If so, please send us your photo.

 
Sectional chart

 
Airport distance calculator
Flying to Mc Cormick County Airport? Find the distance to fly.

From to S19

Sunrise and sunset
Times for 18-Apr-2019
 Local
(UTC-4)
 Zulu
(UTC)
Morning civil twilight06:3010:30
Sunrise06:5610:56
Sunset20:0100:01
Evening civil twilight20:2700:27

Current date and time
Zulu (UTC)  19-Apr-2019 03:29:55
Local (UTC-4)  18-Apr-2019 23:29:55
 
METAR
KGRD 
21nm N 
190256Z AUTO 15012G17KT 10SM FEW047 21/17 A2988 RMK AO2 SLP111 T02060167 50002
KHQU 
26nm SW 
190250Z AUTO 21007G16KT 10SM CLR 22/16 A2990 RMK AO2 T02190159
KIIY 
28nm W 
190315Z AUTO 12008G14KT 090V150 10SM CLR 21/16 A2982 RMK AO2 TSNO
KDNL 
29nm SE 
190253Z AUTO 14008KT 10SM CLR 22/16 A2988 RMK AO2 SLP114 T02220161 50004
KEBA 
30nm W 
190315Z AUTO 14008KT 10SM CLR 21/16 A2984 RMK AO2 T02130164
KAIK 
33nm SE 
190315Z AUTO 14009KT 10SM CLR 20/17 A2992 RMK AO2
KAGS 
36nm SE 
190253Z 15008KT 10SM CLR 22/17 A2987 RMK AO2 SLP112 T02220167 50005
KLUX 
39nm NE 
190315Z AUTO 17009G16KT 10SM SCT070 20/17 A2986 RMK AO2
KEOE 
39nm NE 
190315Z AUTO 16006KT 10SM CLR 21/18 A2991 RMK AO2
KAND 
42nm NW 
190256Z AUTO 14009KT 10SM BKN060 21/16 A2983 RMK AO2 SLP095 T02060156 58004
TAF
KDNL 
29nm SE 
190023Z 1900/1924 15011KT P6SM SCT015 OVC070 WS020/18038KT FM190600 17012KT P6SM OVC015 WS020/18040KT FM191400 18015G28KT 3SM TSRA OVC015CB FM191700 21017G28KT 6SM -SHRA OVC025
KAGS 
36nm SE 
190023Z 1900/1924 15011KT P6SM SCT015 OVC070 WS020/18038KT FM190600 17012KT P6SM OVC015 WS020/18040KT FM191400 18015G28KT 3SM TSRA OVC015CB FM191700 21017G28KT 6SM -SHRA OVC025
NOTAMs
Click for the latest NOTAMs
NOTAMs are issued by the DoD/FAA and will open in a separate window not controlled by AirNav.

 

 
 

Would you like to see your business listed on this page?

 If your business provides an interesting product or service to pilots, flight crews, aircraft, or users of the Mc Cormick County Airport, you should consider listing it here.  To start the listing process, click on the button below
 
Add a business
 

Other Pages about Mc Cormick County Airport

Update a link
 
Copyright © AirNav, LLC. All rights reserved. Privacy Policy  Contact